Time;durP1;ratioP1;P1;durP2;ratioP2;P2;SDS_P1;SDS_P2;PMS_P1;PMS_P2;Temp;Humidity;BMP_temperature;BMP_pressure;BME280_temperature;BME280_humidity;BME280_pressure;Samples;Min_cycle;Max_cycle;Signal;HPM_P1;HPM_P2
2021/01/24 00:00:54;;;;;;;3.72;3.42;;;3.80;99.90;;;;;;4988974;28;20513;-76
2021/01/24 00:03:22;;;;;;;3.08;2.55;;;3.70;99.90;;;;;;4984017;28;20026;-76
2021/01/24 00:05:48;;;;;;;2.95;2.50;;;3.70;99.90;;;;;;4997078;28;20113;-75
2021/01/24 00:08:14;;;;;;;2.63;2.42;;;3.70;99.90;;;;;;4993400;28;20046;-76
2021/01/24 00:10:46;;;;;;;2.80;2.55;;;3.70;99.90;;;;;;4990998;28;20089;-76
2021/01/24 00:13:12;;;;;;;2.72;2.53;;;3.70;99.90;;;;;;4994207;28;20042;-76
2021/01/24 00:15:37;;;;;;;2.97;2.40;;;3.70;99.90;;;;;;4994258;28;20031;-76
2021/01/24 00:18:06;;;;;;;2.88;2.58;;;3.70;99.90;;;;;;4997581;28;20011;-75
2021/01/24 00:20:31;;;;;;;2.80;2.60;;;3.70;99.90;;;;;;4986444;28;20173;-77
2021/01/24 00:22:57;;;;;;;2.80;2.60;;;3.70;99.90;;;;;;4990636;28;20058;-75
2021/01/24 00:25:23;;;;;;;2.67;2.47;;;3.70;99.90;;;;;;4986292;28;20034;-76
2021/01/24 00:27:48;;;;;;;2.15;2.05;;;3.70;99.90;;;;;;4990807;28;20081;-76
2021/01/24 00:30:16;;;;;;;2.25;2.10;;;3.70;99.90;;;;;;4997772;28;20040;-75
2021/01/24 00:32:51;;;;;;;2.05;1.90;;;3.70;99.90;;;;;;4994285;28;20044;-76
2021/01/24 00:35:17;;;;;;;2.20;2.00;;;3.70;99.90;;;;;;5006726;28;20041;-75
2021/01/24 00:37:43;;;;;;;2.13;1.92;;;3.70;99.90;;;;;;4997557;28;20040;-77
2021/01/24 00:40:09;;;;;;;2.03;1.70;;;3.70;99.90;;;;;;4986834;28;20034;-76
2021/01/24 00:42:35;;;;;;;1.92;1.75;;;3.60;99.90;;;;;;4982825;28;20107;-76
2021/01/24 00:45:01;;;;;;;2.00;1.80;;;3.70;99.90;;;;;;4975678;28;20090;-76
2021/01/24 00:47:27;;;;;;;1.77;1.67;;;3.60;99.90;;;;;;4982778;28;20510;-75
2021/01/24 00:49:52;;;;;;;1.48;1.38;;;3.60;99.90;;;;;;5008211;28;20030;-76
2021/01/24 00:52:18;;;;;;;2.15;1.58;;;3.70;99.90;;;;;;4983951;28;20062;-75
2021/01/24 00:54:44;;;;;;;1.55;1.45;;;3.70;99.90;;;;;;4992451;28;20030;-76
2021/01/24 00:57:09;;;;;;;1.50;1.40;;;3.60;99.90;;;;;;4983091;28;20512;-75
2021/01/24 00:59:35;;;;;;;1.20;1.00;;;3.70;99.90;;;;;;4982179;28;20077;-75
2021/01/24 01:02:00;;;;;;;1.50;1.40;;;3.60;99.90;;;;;;4981853;28;20026;-75
2021/01/24 01:04:26;;;;;;;1.63;1.52;;;3.60;99.90;;;;;;4976724;28;20544;-75
2021/01/24 01:06:52;;;;;;;1.67;1.50;;;3.60;99.90;;;;;;4977583;28;20033;-75
2021/01/24 01:09:18;;;;;;;2.25;1.40;;;3.60;99.90;;;;;;4979450;28;20031;-76
2021/01/24 01:11:43;;;;;;;1.60;1.50;;;3.60;99.90;;;;;;4979226;28;20266;-75
2021/01/24 01:14:09;;;;;;;1.50;1.40;;;3.60;99.90;;;;;;4987045;28;20053;-75
2021/01/24 01:16:34;;;;;;;1.38;1.27;;;3.70;99.90;;;;;;4989828;28;20030;-76
2021/01/24 01:19:00;;;;;;;1.33;1.23;;;3.70;99.90;;;;;;4986273;28;20113;-76
2021/01/24 01:21:26;;;;;;;1.30;1.17;;;3.70;99.90;;;;;;4980395;28;20566;-76
2021/01/24 01:23:51;;;;;;;1.90;1.80;;;3.60;99.90;;;;;;4980815;28;20023;-77
2021/01/24 01:26:17;;;;;;;1.40;1.30;;;3.60;99.90;;;;;;4982634;28;20089;-76
2021/01/24 01:28:43;;;;;;;1.50;1.40;;;3.50;99.90;;;;;;4987135;28;20042;-76
2021/01/24 01:31:08;;;;;;;2.65;1.30;;;3.60;99.90;;;;;;4987288;28;20022;-76
2021/01/24 01:33:34;;;;;;;1.42;1.33;;;3.60;99.90;;;;;;4992370;28;20511;-76
2021/01/24 01:35:59;;;;;;;1.42;1.33;;;3.50;99.90;;;;;;4986573;28;20106;-75
2021/01/24 01:38:25;;;;;;;1.42;1.33;;;3.50;99.90;;;;;;4989757;28;20097;-76
2021/01/24 01:40:51;;;;;;;1.35;1.25;;;3.50;99.90;;;;;;4991916;28;20045;-75
2021/01/24 01:43:17;;;;;;;1.35;1.25;;;3.50;99.90;;;;;;4987976;28;20019;-75
2021/01/24 01:45:43;;;;;;;1.40;1.30;;;3.50;99.90;;;;;;4983335;28;20509;-75
2021/01/24 01:48:09;;;;;;;1.20;1.10;;;3.50;99.90;;;;;;4987414;28;20023;-75
2021/01/24 01:50:34;;;;;;;1.50;1.40;;;3.50;99.90;;;;;;4988942;28;20550;-75
2021/01/24 01:53:00;;;;;;;1.58;1.48;;;3.50;99.90;;;;;;4984835;28;20138;-75
2021/01/24 01:55:27;;;;;;;1.38;1.27;;;3.40;99.90;;;;;;4993054;28;20474;-75
2021/01/24 01:57:54;;;;;;;1.50;1.40;;;3.40;99.90;;;;;;4990561;28;20162;-75
2021/01/24 02:00:20;;;;;;;1.52;1.42;;;3.40;99.90;;;;;;4996216;28;20030;-75
2021/01/24 02:03:07;;;;;;;1.80;1.70;;;3.50;99.90;;;;;;4999947;28;20034;-75
2021/01/24 02:05:52;;;;;;;1.75;1.65;;;3.50;99.90;;;;;;4981032;28;20026;-75
2021/01/24 02:08:30;;;;;;;2.35;1.45;;;3.50;99.90;;;;;;4994152;28;20105;-74
2021/01/24 02:11:11;;;;;;;2.83;1.70;;;3.50;99.90;;;;;;4993614;28;20037;-75
2021/01/24 02:14:06;;;;;;;1.90;1.80;;;3.60;99.90;;;;;;4990848;28;20030;-75
2021/01/24 02:16:33;;;;;;;2.97;1.35;;;3.60;99.90;;;;;;4992355;28;20045;-74
2021/01/24 02:19:01;;;;;;;1.60;1.25;;;3.50;99.90;;;;;;4991668;28;20087;-77
2021/01/24 02:21:32;;;;;;;1.17;1.08;;;3.60;99.90;;;;;;5011000;28;20033;-75
2021/01/24 02:24:08;;;;;;;0.80;0.80;;;3.60;99.90;;;;;;4982315;28;20027;-75
2021/01/24 02:27:01;;;;;;;0.60;0.60;;;3.60;99.90;;;;;;5013050;28;20121;-74
2021/01/24 02:29:43;;;;;;;0.60;0.60;;;3.60;99.90;;;;;;4980575;28;20501;-75
2021/01/24 02:32:12;;;;;;;0.40;0.40;;;3.60;99.90;;;;;;4993615;28;20023;-74
2021/01/24 02:34:39;;;;;;;0.50;0.50;;;3.60;99.90;;;;;;4980866;28;20030;-74
2021/01/24 02:37:05;;;;;;;0.20;0.20;;;3.50;99.90;;;;;;4978392;28;20040;-73
2021/01/24 02:39:32;;;;;;;0.30;0.30;;;3.50;99.90;;;;;;4988654;28;20018;-74
2021/01/24 02:41:59;;;;;;;0.40;0.40;;;3.40;99.90;;;;;;4988143;28;20494;-73
2021/01/24 02:44:26;;;;;;;0.30;0.30;;;3.40;99.90;;;;;;4988979;28;20030;-73
2021/01/24 02:46:52;;;;;;;0.30;0.30;;;3.40;99.90;;;;;;4991844;28;20023;-74
2021/01/24 02:49:18;;;;;;;0.30;0.30;;;3.30;99.90;;;;;;4992582;28;20057;-73
2021/01/24 02:51:43;;;;;;;0.30;0.30;;;3.30;99.90;;;;;;4979925;28;20062;-74
2021/01/24 02:54:10;;;;;;;0.30;0.30;;;3.30;99.90;;;;;;4990724;28;20060;-73
2021/01/24 02:56:37;;;;;;;0.40;0.40;;;3.20;99.90;;;;;;4986310;28;20108;-74
2021/01/24 02:59:03;;;;;;;0.30;0.30;;;3.20;99.90;;;;;;4984580;28;20043;-74
2021/01/24 03:01:29;;;;;;;0.50;0.50;;;3.20;99.90;;;;;;4982641;28;20064;-73
2021/01/24 03:03:54;;;;;;;0.60;0.60;;;3.20;99.90;;;;;;4981853;28;20087;-72
2021/01/24 03:06:20;;;;;;;0.50;0.50;;;3.20;99.90;;;;;;4985524;28;20482;-74
2021/01/24 03:08:46;;;;;;;0.68;0.68;;;3.10;99.90;;;;;;4983005;28;20105;-75
2021/01/24 03:11:16;;;;;;;0.50;0.50;;;3.10;99.90;;;;;;4991918;28;20049;-74
2021/01/24 03:13:54;;;;;;;0.77;0.63;;;3.00;99.90;;;;;;4984885;28;20050;-74
2021/01/24 03:16:21;;;;;;;0.63;0.63;;;3.00;99.90;;;;;;4983113;28;20031;-73
2021/01/24 03:18:47;;;;;;;0.60;0.60;;;3.00;96.60;;;;;;4996754;28;20090;-73
2021/01/24 03:21:15;;;;;;;0.80;0.80;;;3.00;95.50;;;;;;5002404;28;20029;-73
2021/01/24 03:23:42;;;;;;;1.10;0.90;;;3.00;79.40;;;;;;4991301;28;20038;-75
2021/01/24 03:26:08;;;;;;;1.52;1.13;;;3.00;14.80;;;;;;4991737;28;20049;-73
2021/01/24 03:28:37;;;;;;;1.10;1.00;;;3.00;44.00;;;;;;4988286;28;20026;-73
2021/01/24 03:31:07;;;;;;;2.13;1.90;;;3.00;1.00;;;;;;4986556;28;20039;-74
2021/01/24 03:33:34;;;;;;;2.33;2.10;;;3.00;1.00;;;;;;4994626;28;20057;-73
2021/01/24 03:36:00;;;;;;;3.40;1.80;;;2.90;1.00;;;;;;5003969;28;20041;-74
2021/01/24 03:38:26;;;;;;;2.15;1.92;;;2.90;1.00;;;;;;4992010;28;20062;-73
2021/01/24 03:40:52;;;;;;;2.90;2.22;;;2.90;1.00;;;;;;4991348;28;20030;-72
2021/01/24 03:43:17;;;;;;;2.03;1.83;;;2.80;1.00;;;;;;5000767;28;20470;-73
2021/01/24 03:45:43;;;;;;;2.42;2.22;;;2.80;1.00;;;;;;5000124;28;20102;-73
2021/01/24 03:48:08;;;;;;;2.10;1.90;;;2.70;1.00;;;;;;4985312;28;20027;-73
2021/01/24 03:50:34;;;;;;;1.80;1.70;;;2.70;1.00;;;;;;4992102;28;20120;-73
2021/01/24 03:52:59;;;;;;;1.75;1.65;;;2.60;13.10;;;;;;4986357;28;20040;-73
2021/01/24 03:55:25;;;;;;;2.13;2.03;;;2.60;29.80;;;;;;4991114;28;20041;-75
2021/01/24 03:57:50;;;;;;;1.95;1.67;;;2.60;19.10;;;;;;4987130;28;20041;-75
2021/01/24 04:00:16;;;;;;;2.50;1.73;;;2.60;23.90;;;;;;4982077;28;20041;-75
2021/01/24 04:02:42;;;;;;;2.10;2.00;;;2.50;37.30;;;;;;4984954;28;20030;-74
2021/01/24 04:05:09;;;;;;;2.22;1.98;;;2.60;17.90;;;;;;4987374;28;20433;-74
2021/01/24 04:07:34;;;;;;;2.22;2.03;;;2.60;1.00;;;;;;4989470;28;20029;-73
2021/01/24 04:10:00;;;;;;;2.30;2.10;;;2.60;1.00;;;;;;4984370;28;20034;-73
2021/01/24 04:12:25;;;;;;;2.75;2.55;;;2.50;1.00;;;;;;4987965;28;20050;-73
2021/01/24 04:14:51;;;;;;;2.25;1.92;;;2.50;1.00;;;;;;4984195;28;20483;-73
2021/01/24 04:17:16;;;;;;;2.45;1.65;;;2.40;1.00;;;;;;4978781;28;20038;-73
2021/01/24 04:19:42;;;;;;;2.83;2.05;;;2.30;7.10;;;;;;4995969;28;20026;-75
2021/01/24 04:22:08;;;;;;;3.13;2.30;;;2.30;1.00;;;;;;4984437;28;20073;-74
2021/01/24 04:24:33;;;;;;;2.58;2.00;;;2.30;3.60;;;;;;4987073;28;20034;-74
2021/01/24 04:26:59;;;;;;;2.30;2.00;;;2.30;6.60;;;;;;4981621;28;20035;-74
2021/01/24 04:29:24;;;;;;;2.33;1.80;;;2.20;15.80;;;;;;4981845;28;20027;-74
2021/01/24 04:31:50;;;;;;;2.53;2.22;;;2.20;33.20;;;;;;4984365;28;20508;-72
2021/01/24 04:34:16;;;;;;;3.85;2.03;;;2.20;46.70;;;;;;4988537;28;20066;-73
2021/01/24 04:36:41;;;;;;;2.40;2.20;;;2.10;64.00;;;;;;4984239;28;20031;-73
2021/01/24 04:39:07;;;;;;;2.92;2.53;;;2.10;49.50;;;;;;4992804;28;20065;-73
2021/01/24 04:41:36;;;;;;;3.53;2.92;;;2.00;1.00;;;;;;4984820;28;20049;-72
2021/01/24 04:44:03;;;;;;;2.35;1.85;;;2.10;1.00;;;;;;4991387;28;20055;-74
2021/01/24 04:46:31;;;;;;;3.72;1.60;;;2.10;1.00;;;;;;4986031;28;20062;-73
2021/01/24 04:48:57;;;;;;;3.15;2.00;;;2.10;1.00;;;;;;4985125;28;20087;-73
2021/01/24 04:51:23;;;;;;;2.03;1.70;;;2.20;1.00;;;;;;4976881;28;20378;-73
2021/01/24 04:53:49;;;;;;;3.20;2.10;;;2.20;1.00;;;;;;4983558;28;20027;-73
2021/01/24 04:56:15;;;;;;;4.32;1.67;;;2.20;1.00;;;;;;4985494;28;20030;-73
2021/01/24 04:58:42;;;;;;;2.70;1.70;;;2.10;1.00;;;;;;4980041;28;20030;-75
2021/01/24 05:01:08;;;;;;;2.08;1.80;;;2.20;1.00;;;;;;4974297;28;20516;-74
2021/01/24 05:03:35;;;;;;;4.13;1.85;;;2.20;99.90;;;;;;4985446;28;20117;-74
2021/01/24 05:06:00;;;;;;;2.28;1.73;;;2.30;99.90;;;;;;4987980;28;20019;-73
2021/01/24 05:08:30;;;;;;;3.20;1.92;;;2.20;99.90;;;;;;4983830;28;20507;-72
2021/01/24 05:11:04;;;;;;;2.45;1.80;;;2.20;99.90;;;;;;4990965;28;20113;-73
2021/01/24 05:13:29;;;;;;;2.60;1.75;;;2.20;99.90;;;;;;4986365;28;20057;-73
2021/01/24 05:15:56;;;;;;;2.58;1.63;;;2.20;99.90;;;;;;4987856;28;20034;-73
2021/01/24 05:18:22;;;;;;;3.40;2.03;;;2.20;99.90;;;;;;4986233;28;20027;-73
2021/01/24 05:20:50;;;;;;;2.30;1.80;;;2.20;99.90;;;;;;4985761;28;20058;-73
2021/01/24 05:23:22;;;;;;;5.28;1.90;;;2.20;99.90;;;;;;4984255;28;20034;-73
2021/01/24 05:25:48;;;;;;;3.67;1.58;;;2.20;99.90;;;;;;4982971;28;20109;-73
2021/01/24 05:28:22;;;;;;;1.95;1.55;;;2.20;99.90;;;;;;4986943;28;20538;-73
2021/01/24 05:30:48;;;;;;;1.77;1.63;;;2.10;99.90;;;;;;4987793;28;20046;-73
2021/01/24 05:33:19;;;;;;;2.33;1.77;;;2.10;99.90;;;;;;4981613;28;20505;-73
2021/01/24 05:35:50;;;;;;;2.67;1.48;;;2.10;99.90;;;;;;4992849;28;20026;-73
2021/01/24 05:38:29;;;;;;;2.67;2.00;;;2.10;99.90;;;;;;4983356;28;20054;-74
2021/01/24 05:40:59;;;;;;;3.38;1.67;;;2.10;99.90;;;;;;4975905;28;20401;-73
2021/01/24 05:43:26;;;;;;;1.95;1.73;;;2.10;1.00;;;;;;4990706;28;20030;-73
2021/01/24 05:45:53;;;;;;;2.38;1.50;;;2.10;1.00;;;;;;4972245;28;20031;-73
2021/01/24 05:48:19;;;;;;;3.03;2.30;;;2.00;1.00;;;;;;4977297;28;20129;-74
2021/01/24 05:50:45;;;;;;;2.92;2.22;;;1.90;1.00;;;;;;4985536;28;20085;-73
2021/01/24 05:53:14;;;;;;;3.25;2.10;;;1.80;1.00;;;;;;4979280;28;20026;-73
2021/01/24 05:55:42;;;;;;;4.25;3.67;;;1.70;1.00;;;;;;4982859;28;20548;-73
2021/01/24 05:58:19;;;;;;;2.95;2.20;;;1.60;1.00;;;;;;4981280;28;20030;-74
2021/01/24 06:00:47;;;;;;;4.70;2.40;;;1.60;1.00;;;;;;4986282;28;20022;-73
2021/01/24 06:03:14;;;;;;;3.42;2.10;;;1.60;1.00;;;;;;4988657;28;20038;-74
2021/01/24 06:05:40;;;;;;;2.15;1.95;;;1.60;1.00;;;;;;4983254;28;20026;-74
2021/01/24 06:08:06;;;;;;;3.75;2.30;;;1.60;1.00;;;;;;4977505;28;20034;-73
2021/01/24 06:10:33;;;;;;;2.95;2.42;;;1.70;99.90;;;;;;4982401;28;20500;-73
2021/01/24 06:13:00;;;;;;;2.67;2.42;;;1.70;1.00;;;;;;4978965;28;20047;-74
2021/01/24 06:15:28;;;;;;;3.67;2.85;;;1.70;1.00;;;;;;4983070;28;20031;-74
2021/01/24 06:17:57;;;;;;;3.05;2.30;;;1.60;1.00;;;;;;4987901;28;20189;-74
2021/01/24 06:20:27;;;;;;;4.55;2.92;;;1.60;1.00;;;;;;4986047;28;20023;-74
2021/01/24 06:23:24;;;;;;;3.00;2.77;;;1.50;1.00;;;;;;4991328;28;20383;-74
2021/01/24 06:25:51;;;;;;;5.25;2.95;;;1.50;1.00;;;;;;4991011;28;20261;-74
2021/01/24 06:28:26;;;;;;;3.35;2.72;;;1.60;1.00;;;;;;4994957;28;20041;-74
2021/01/24 06:30:53;;;;;;;4.53;2.55;;;1.60;1.00;;;;;;4997560;28;20118;-74
2021/01/24 06:33:20;;;;;;;2.97;2.38;;;1.60;1.00;;;;;;4982339;28;20497;-74
2021/01/24 06:35:51;;;;;;;4.70;2.88;;;1.60;1.00;;;;;;4987306;28;20030;-74
2021/01/24 06:38:34;;;;;;;6.97;3.65;;;1.60;1.00;;;;;;5009311;28;20069;-73
2021/01/24 06:41:05;;;;;;;3.50;2.65;;;1.60;1.00;;;;;;4993126;28;20034;-73
2021/01/24 06:43:46;;;;;;;3.10;2.20;;;1.70;1.00;;;;;;4988810;28;20027;-73
2021/01/24 06:46:24;;;;;;;4.15;2.85;;;1.60;1.00;;;;;;4992629;28;20017;-73
2021/01/24 06:48:51;;;;;;;4.28;2.67;;;1.60;1.00;;;;;;4988032;28;20082;-73
2021/01/24 06:51:39;;;;;;;3.42;3.13;;;1.50;1.00;;;;;;4985007;28;20023;-73
2021/01/24 06:54:28;;;;;;;4.20;2.63;;;1.40;1.00;;;;;;4993504;28;20059;-73
2021/01/24 06:57:06;;;;;;;3.33;2.60;;;1.40;1.00;;;;;;4975849;28;20038;-73
2021/01/24 06:59:32;;;;;;;3.00;2.72;;;1.40;1.00;;;;;;4984472;28;20034;-74
2021/01/24 07:02:34;;;;;;;4.57;2.40;;;1.40;1.00;;;;;;4988051;28;20015;-74
2021/01/24 07:05:16;;;;;;;4.38;2.40;;;1.40;1.00;;;;;;4987425;28;20019;-72
2021/01/24 07:07:45;;;;;;;6.78;2.38;;;1.40;1.00;;;;;;4988700;28;20385;-72
2021/01/24 07:10:38;;;;;;;4.88;2.63;;;1.40;1.00;;;;;;4982758;28;20063;-73
2021/01/24 07:13:26;;;;;;;5.88;2.47;;;1.50;1.00;;;;;;4989984;28;20030;-74
2021/01/24 07:15:58;;;;;;;3.13;2.47;;;1.60;99.90;;;;;;4987353;28;20042;-72
2021/01/24 07:18:24;;;;;;;2.35;1.95;;;1.70;99.90;;;;;;4986225;28;20173;-73
2021/01/24 07:20:52;;;;;;;3.50;2.35;;;1.70;99.90;;;;;;4988524;28;20038;-74
2021/01/24 07:23:22;;;;;;;3.05;2.25;;;1.70;99.90;;;;;;4981004;28;20432;-74
2021/01/24 07:25:47;;;;;;;2.88;1.85;;;1.70;99.90;;;;;;4983896;28;20022;-72
2021/01/24 07:28:15;;;;;;;3.75;1.98;;;1.70;99.90;;;;;;4983523;28;20028;-72
2021/01/24 07:30:41;;;;;;;3.38;2.38;;;1.60;1.00;;;;;;4981008;28;20026;-73
2021/01/24 07:33:07;;;;;;;5.95;2.65;;;1.70;1.00;;;;;;4991124;28;20063;-72
2021/01/24 07:35:37;;;;;;;2.70;2.50;;;1.60;1.00;;;;;;4985821;28;20053;-73
2021/01/24 07:38:07;;;;;;;3.22;2.17;;;1.70;1.00;;;;;;4989996;28;20512;-74
2021/01/24 07:40:33;;;;;;;2.60;2.25;;;1.60;1.00;;;;;;4986321;28;20034;-73
2021/01/24 07:42:59;;;;;;;3.20;1.98;;;1.60;1.00;;;;;;4987187;28;20442;-73
2021/01/24 07:45:25;;;;;;;3.15;2.45;;;1.60;1.00;;;;;;4983600;28;20027;-73
2021/01/24 07:47:51;;;;;;;3.13;2.35;;;1.60;1.00;;;;;;4990299;28;20031;-72
2021/01/24 07:50:17;;;;;;;3.15;2.85;;;1.60;1.00;;;;;;4990895;28;20049;-73
2021/01/24 07:52:43;;;;;;;5.05;2.10;;;1.60;1.00;;;;;;4982821;28;20035;-72
2021/01/24 07:55:10;;;;;;;3.03;2.28;;;1.70;1.00;;;;;;4989087;28;20441;-73
2021/01/24 07:57:38;;;;;;;2.95;2.08;;;1.80;99.90;;;;;;4990197;28;20038;-73
2021/01/24 08:00:05;;;;;;;4.10;2.28;;;1.90;99.90;;;;;;4982568;28;20042;-73
2021/01/24 08:02:31;;;;;;;2.47;1.80;;;2.00;99.90;;;;;;4984938;28;20398;-73
2021/01/24 08:04:59;;;;;;;2.80;2.30;;;2.10;99.90;;;;;;4985984;28;20022;-72
2021/01/24 08:07:28;;;;;;;2.75;2.50;;;2.20;99.90;;;;;;4983073;28;20505;-72
2021/01/24 08:09:54;;;;;;;2.38;1.80;;;2.20;99.90;;;;;;4990157;28;20045;-73
2021/01/24 08:12:21;;;;;;;1.63;1.52;;;2.20;99.90;;;;;;4982777;28;20026;-72
2021/01/24 08:14:47;;;;;;;3.92;1.60;;;2.30;99.90;;;;;;4987563;28;20035;-72
2021/01/24 08:17:16;;;;;;;2.78;1.75;;;2.20;99.90;;;;;;4981364;28;20077;-73
2021/01/24 08:19:42;;;;;;;3.75;2.50;;;2.20;99.90;;;;;;4980863;28;20030;-73
2021/01/24 08:22:08;;;;;;;2.25;1.88;;;2.20;99.90;;;;;;4980560;28;20041;-72
2021/01/24 08:24:34;;;;;;;3.13;1.80;;;2.20;99.90;;;;;;4984538;28;20026;-74
2021/01/24 08:27:00;;;;;;;2.22;1.60;;;2.20;99.90;;;;;;4982901;28;20058;-73
2021/01/24 08:29:30;;;;;;;2.17;1.98;;;2.30;99.90;;;;;;4984263;28;20026;-73
2021/01/24 08:32:00;;;;;;;2.47;1.88;;;2.30;99.90;;;;;;4980423;28;20578;-73
2021/01/24 08:34:26;;;;;;;1.63;1.52;;;2.30;99.90;;;;;;4980205;28;20126;-74
2021/01/24 08:36:52;;;;;;;2.60;1.85;;;2.40;99.90;;;;;;4983885;28;20062;-73
2021/01/24 08:39:22;;;;;;;2.20;1.70;;;2.40;99.90;;;;;;4979679;28;20039;-74
2021/01/24 08:41:50;;;;;;;3.17;1.55;;;2.50;99.90;;;;;;4992910;28;20026;-73
2021/01/24 08:44:16;;;;;;;3.03;1.70;;;2.60;99.90;;;;;;4985400;28;20022;-73
2021/01/24 08:47:05;;;;;;;1.80;1.60;;;2.80;99.90;;;;;;4982174;28;20022;-73
2021/01/24 08:49:31;;;;;;;2.13;1.52;;;3.10;95.80;;;;;;4980032;28;21698;-74
2021/01/24 08:51:59;;;;;;;2.58;2.03;;;3.20;56.20;;;;;;4989089;28;20030;-73
2021/01/24 08:54:29;;;;;;;1.55;1.33;;;3.40;34.20;;;;;;4987161;28;20034;-73
2021/01/24 08:57:11;;;;;;;3.83;1.63;;;3.40;1.00;;;;;;4982930;28;20035;-71
2021/01/24 08:59:37;;;;;;;1.88;1.55;;;3.40;1.00;;;;;;4978842;28;20038;-73
2021/01/24 09:02:04;;;;;;;2.42;1.48;;;3.30;1.00;;;;;;4981760;28;20070;-74
2021/01/24 09:04:35;;;;;;;1.90;1.45;;;3.10;6.00;;;;;;4997818;28;20029;-72
2021/01/24 09:07:17;;;;;;;1.92;1.80;;;3.10;12.50;;;;;;4993403;28;20071;-73
2021/01/24 09:09:48;;;;;;;4.30;1.88;;;3.10;59.80;;;;;;4987375;28;20111;-73
2021/01/24 09:12:21;;;;;;;1.98;1.65;;;3.00;99.90;;;;;;4990667;28;20038;-73
2021/01/24 09:14:48;;;;;;;2.58;1.77;;;2.90;99.90;;;;;;4985243;28;20027;-73
2021/01/24 09:17:16;;;;;;;2.78;1.77;;;2.90;99.90;;;;;;4989335;28;20026;-72
2021/01/24 09:19:44;;;;;;;1.70;1.60;;;2.90;99.90;;;;;;4990865;28;20026;-72
2021/01/24 09:22:18;;;;;;;2.88;1.70;;;3.00;99.90;;;;;;4985128;28;20019;-73
2021/01/24 09:24:44;;;;;;;2.13;1.75;;;3.10;99.90;;;;;;4997800;28;20022;-73
2021/01/24 09:27:12;;;;;;;2.00;1.80;;;3.10;99.90;;;;;;4993862;28;20031;-72
2021/01/24 09:29:40;;;;;;;5.40;2.13;;;3.10;99.90;;;;;;4994437;28;20064;-73
2021/01/24 09:32:06;;;;;;;1.92;1.77;;;3.10;99.90;;;;;;4991995;28;20026;-72
2021/01/24 09:34:32;;;;;;;2.67;2.10;;;2.90;1.00;;;;;;4995553;28;20026;-73
2021/01/24 09:36:58;;;;;;;2.92;2.08;;;2.80;1.00;;;;;;5001990;28;20061;-73
2021/01/24 09:39:24;;;;;;;5.43;2.03;;;2.80;1.00;;;;;;4994130;28;20034;-74
2021/01/24 09:41:50;;;;;;;6.22;2.10;;;2.70;1.00;;;;;;4995189;28;20083;-73
2021/01/24 09:44:16;;;;;;;3.05;1.83;;;2.60;3.20;;;;;;4985095;28;20638;-74
2021/01/24 09:46:42;;;;;;;3.47;2.65;;;2.60;50.50;;;;;;4989757;28;20027;-73
2021/01/24 09:49:07;;;;;;;4.35;1.92;;;2.60;90.70;;;;;;5012692;28;20031;-73
2021/01/24 09:51:33;;;;;;;3.75;2.50;;;2.60;82.70;;;;;;4995531;28;20023;-73
2021/01/24 09:54:00;;;;;;;2.83;2.22;;;2.70;78.20;;;;;;5001277;28;20426;-73
2021/01/24 09:56:27;;;;;;;2.72;2.30;;;2.80;76.50;;;;;;4991218;28;20073;-73
2021/01/24 09:58:53;;;;;;;3.28;1.90;;;2.80;61.90;;;;;;4993448;28;20066;-74
2021/01/24 10:01:20;;;;;;;3.33;2.30;;;2.90;44.40;;;;;;4991962;28;20026;-74
2021/01/24 10:03:47;;;;;;;3.60;2.45;;;3.00;24.10;;;;;;4993501;28;20398;-72
2021/01/24 10:06:13;;;;;;;3.10;2.20;;;3.10;35.80;;;;;;4998293;28;20003;-74
2021/01/24 10:08:39;;;;;;;4.63;2.60;;;3.10;21.10;;;;;;4993286;28;20023;-72
2021/01/24 10:11:05;;;;;;;5.18;1.83;;;3.20;19.60;;;;;;4990627;28;20504;-75
2021/01/24 10:13:30;;;;;;;2.35;2.15;;;3.30;1.00;;;;;;4987203;28;20379;-73
2021/01/24 10:15:56;;;;;;;2.40;2.05;;;3.20;1.00;;;;;;4990486;28;20069;-74
2021/01/24 10:18:22;;;;;;;2.55;2.00;;;3.10;2.80;;;;;;4997040;28;20126;-73
2021/01/24 10:20:48;;;;;;;4.72;3.35;;;3.00;12.80;;;;;;4989128;28;20034;-74
2021/01/24 10:23:16;;;;;;;2.28;2.05;;;3.10;45.10;;;;;;4985320;28;20031;-74
2021/01/24 10:25:42;;;;;;;1.70;1.60;;;3.20;2.50;;;;;;4984761;28;20030;-73
2021/01/24 10:28:07;;;;;;;2.85;1.90;;;3.20;1.00;;;;;;4982263;28;20090;-73
2021/01/24 10:30:33;;;;;;;2.47;2.13;;;3.30;1.00;;;;;;4994784;28;21833;-74
2021/01/24 10:32:59;;;;;;;6.47;2.20;;;3.20;1.00;;;;;;4986691;28;20053;-73
2021/01/24 10:35:24;;;;;;;2.28;1.80;;;3.30;1.00;;;;;;4987639;28;20050;-74
2021/01/24 10:37:50;;;;;;;1.83;1.70;;;3.30;1.00;;;;;;4988450;28;20085;-73
2021/01/24 10:40:16;;;;;;;1.30;1.20;;;3.30;99.90;;;;;;4988008;28;20074;-73
2021/01/24 10:42:44;;;;;;;3.55;1.40;;;3.30;99.90;;;;;;4983025;28;20556;-74
2021/01/24 10:45:11;;;;;;;2.53;1.65;;;3.40;99.90;;;;;;4984439;28;20037;-75
2021/01/24 10:47:37;;;;;;;1.55;1.42;;;3.60;99.90;;;;;;4988156;28;20050;-73
2021/01/24 10:50:07;;;;;;;5.95;1.30;;;3.80;99.90;;;;;;4996255;28;20038;-74
2021/01/24 10:52:33;;;;;;;2.08;1.38;;;3.80;34.40;;;;;;4995481;28;20053;-73
2021/01/24 10:54:59;;;;;;;1.92;1.50;;;4.00;98.50;;;;;;4996103;28;20038;-76
2021/01/24 10:57:25;;;;;;;1.75;1.63;;;4.10;1.00;;;;;;4994203;28;20402;-72
2021/01/24 10:59:50;;;;;;;2.85;1.35;;;4.20;2.40;;;;;;4988824;28;20410;-74
2021/01/24 11:02:16;;;;;;;1.48;1.30;;;4.40;1.00;;;;;;4990998;28;20038;-74
2021/01/24 11:04:41;;;;;;;2.75;1.40;;;4.10;99.90;;;;;;4993570;28;20029;-73
2021/01/24 11:07:07;;;;;;;1.35;1.25;;;4.00;99.90;;;;;;4986382;28;20493;-74
2021/01/24 11:09:32;;;;;;;1.50;1.40;;;4.20;99.90;;;;;;5004519;28;20015;-73
2021/01/24 11:11:59;;;;;;;2.10;1.02;;;4.50;99.90;;;;;;5009246;28;20041;-73
2021/01/24 11:14:28;;;;;;;2.20;0.93;;;4.60;99.90;;;;;;5013937;28;20026;-72
2021/01/24 11:16:54;;;;;;;1.30;1.20;;;4.80;1.00;;;;;;5008488;28;20027;-74
2021/01/24 11:19:19;;;;;;;2.72;1.35;;;4.90;1.00;;;;;;5001794;28;20026;-73
2021/01/24 11:21:45;;;;;;;1.02;0.93;;;4.90;1.00;;;;;;5009343;28;20031;-74
2021/01/24 11:24:11;;;;;;;2.42;1.27;;;4.90;99.90;;;;;;4999958;28;20022;-74
2021/01/24 11:26:39;;;;;;;1.50;1.40;;;4.80;99.90;;;;;;5009150;28;20086;-74
2021/01/24 11:29:05;;;;;;;3.90;1.38;;;4.60;99.90;;;;;;4999291;28;20087;-76
2021/01/24 11:31:32;;;;;;;1.35;1.25;;;4.60;1.00;;;;;;5004192;28;20026;-75
2021/01/24 11:33:58;;;;;;;1.83;1.10;;;4.70;99.90;;;;;;5004268;28;20089;-76
2021/01/24 11:36:23;;;;;;;3.00;1.10;;;4.60;99.90;;;;;;5002392;28;20034;-75
2021/01/24 11:38:49;;;;;;;1.40;1.30;;;4.50;1.00;;;;;;5006600;28;20078;-76
2021/01/24 11:41:14;;;;;;;2.00;1.33;;;4.60;99.90;;;;;;5005409;28;20064;-76
2021/01/24 11:43:40;;;;;;;1.50;1.20;;;4.50;99.90;;;;;;4997586;28;20416;-77
2021/01/24 11:46:06;;;;;;;1.27;0.95;;;4.50;1.00;;;;;;5008704;28;20093;-75
2021/01/24 11:48:34;;;;;;;1.60;1.13;;;4.70;99.90;;;;;;4992903;28;20022;-77
2021/01/24 11:51:00;;;;;;;1.48;0.90;;;4.70;99.90;;;;;;5001766;28;20042;-75
2021/01/24 11:53:25;;;;;;;1.27;1.10;;;4.70;94.90;;;;;;5000706;28;20041;-75
2021/01/24 11:55:52;;;;;;;1.83;1.10;;;4.60;99.90;;;;;;4992156;28;20095;-75
2021/01/24 11:58:19;;;;;;;3.22;1.80;;;4.40;1.00;;;;;;4998967;28;20026;-76
2021/01/24 12:00:45;;;;;;;1.50;1.15;;;4.40;1.00;;;;;;5002818;28;20034;-76
2021/01/24 12:03:10;;;;;;;1.60;1.00;;;4.30;1.00;;;;;;4993943;28;20052;-77
2021/01/24 12:05:36;;;;;;;1.52;1.08;;;4.30;1.00;;;;;;4998284;28;20033;-76
2021/01/24 12:08:06;;;;;;;4.57;1.23;;;4.40;99.90;;;;;;5012813;28;20061;-75
2021/01/24 12:10:35;;;;;;;1.67;1.10;;;4.60;1.00;;;;;;5010630;28;20361;-77
2021/01/24 12:13:00;;;;;;;1.42;1.33;;;4.30;11.20;;;;;;5011327;28;20030;-74
2021/01/24 12:15:26;;;;;;;1.58;1.08;;;4.30;99.90;;;;;;5003190;28;20195;-73
2021/01/24 12:17:51;;;;;;;3.50;1.85;;;4.10;99.90;;;;;;5014043;28;20011;-75
2021/01/24 12:20:17;;;;;;;1.20;1.10;;;4.10;99.90;;;;;;5004036;28;20082;-75
2021/01/24 12:22:43;;;;;;;3.33;1.30;;;4.20;99.90;;;;;;5003201;28;20094;-75
2021/01/24 12:25:09;;;;;;;3.03;1.50;;;4.20;99.90;;;;;;4994523;28;20027;-74
2021/01/24 12:27:35;;;;;;;3.78;1.25;;;4.10;99.90;;;;;;5001149;28;20023;-75
2021/01/24 12:30:01;;;;;;;2.60;1.38;;;4.20;99.90;;;;;;5006628;28;20065;-74
2021/01/24 12:32:26;;;;;;;4.53;2.63;;;4.00;99.90;;;;;;5006632;28;20042;-76
2021/01/24 12:34:52;;;;;;;2.97;1.60;;;3.90;99.90;;;;;;5001507;28;20020;-75
2021/01/24 12:37:18;;;;;;;2.55;1.58;;;3.80;99.90;;;;;;4988464;28;20035;-76
2021/01/24 12:39:43;;;;;;;2.42;1.55;;;3.80;99.90;;;;;;4987732;28;20482;-74
2021/01/24 12:42:09;;;;;;;1.92;1.40;;;3.80;99.90;;;;;;4988337;28;20060;-77
2021/01/24 12:44:35;;;;;;;1.00;0.90;;;3.80;99.90;;;;;;4985750;28;20466;-71
2021/01/24 12:47:01;;;;;;;1.92;1.70;;;3.60;99.90;;;;;;4980217;28;20070;-71
2021/01/24 12:49:26;;;;;;;4.13;1.65;;;3.50;99.90;;;;;;4983618;28;20035;-71
2021/01/24 12:51:52;;;;;;;2.05;1.55;;;3.50;99.90;;;;;;4991397;28;20023;-71
2021/01/24 12:54:17;;;;;;;2.55;1.73;;;3.50;1.00;;;;;;4980258;28;20378;-72
2021/01/24 12:56:43;;;;;;;4.18;1.85;;;3.60;99.90;;;;;;4985115;28;20035;-72
2021/01/24 12:59:09;;;;;;;2.00;1.52;;;3.70;99.90;;;;;;4981346;28;20042;-76
2021/01/24 13:01:34;;;;;;;2.88;1.30;;;3.60;99.90;;;;;;4984029;28;20030;-76
2021/01/24 13:04:00;;;;;;;1.88;1.50;;;3.60;99.90;;;;;;4999146;28;20030;-77